createdAt,value
2023-03-31T00:01:15.390Z,45.88
2023-03-31T00:03:44.952Z,45.88
2023-03-31T00:06:19.137Z,45.77
2023-03-31T00:08:52.349Z,45.74
2023-03-31T00:11:24.504Z,46.08
2023-03-31T00:13:53.258Z,45.81
2023-03-31T00:16:21.847Z,46.11
2023-03-31T00:18:52.233Z,45.85
2023-03-31T00:21:26.090Z,45.91
2023-03-31T00:24:00.445Z,46.07
2023-03-31T00:26:29.610Z,45.83
2023-03-31T00:28:58.921Z,46.09
2023-03-31T00:31:28.097Z,45.96
2023-03-31T00:33:57.367Z,46.10
2023-03-31T00:36:29.269Z,46.17
2023-03-31T00:39:01.007Z,46.10
2023-03-31T00:41:29.969Z,45.86
2023-03-31T00:44:15.005Z,46.05
2023-03-31T00:46:58.460Z,46.21
2023-03-31T00:49:42.314Z,45.77
2023-03-31T00:52:38.402Z,46.04
2023-03-31T00:55:15.022Z,45.97
2023-03-31T00:57:45.113Z,46.36
2023-03-31T01:00:15.819Z,46.41
2023-03-31T01:02:52.831Z,46.11
2023-03-31T01:05:40.163Z,46.06
2023-03-31T01:08:08.868Z,45.98
2023-03-31T01:10:42.214Z,46.28
2023-03-31T01:13:11.374Z,46.40
2023-03-31T01:15:40.232Z,46.23
2023-03-31T01:18:11.444Z,46.28
2023-03-31T01:21:07.979Z,46.34
2023-03-31T01:24:06.617Z,46.28
2023-03-31T01:26:54.968Z,46.41
2023-03-31T01:29:45.448Z,46.25
2023-03-31T01:32:51.286Z,46.13
2023-03-31T01:35:38.759Z,46.31
2023-03-31T01:38:10.706Z,46.57
2023-03-31T01:41:32.281Z,46.24
2023-03-31T01:44:44.169Z,46.31
2023-03-31T01:47:41.181Z,46.39
2023-03-31T01:50:37.127Z,46.35
2023-03-31T01:53:19.151Z,46.25
2023-03-31T01:56:16.893Z,46.36
2023-03-31T01:58:59.688Z,46.47
2023-03-31T02:01:56.913Z,46.48
2023-03-31T02:04:42.580Z,46.40
2023-03-31T02:07:29.452Z,46.80
2023-03-31T02:10:01.779Z,46.50
2023-03-31T02:12:32.718Z,46.97
2023-03-31T02:15:01.636Z,46.48
2023-03-31T02:17:32.968Z,46.53
2023-03-31T02:20:06.498Z,46.63
2023-03-31T02:22:38.164Z,46.57
2023-03-31T02:25:08.702Z,46.64
2023-03-31T02:27:42.816Z,46.65
2023-03-31T02:30:12.238Z,46.57
2023-03-31T02:32:43.025Z,46.68
2023-03-31T02:35:19.620Z,46.70
2023-03-31T02:37:49.974Z,46.71
2023-03-31T02:40:21.947Z,46.65
2023-03-31T02:42:50.772Z,46.63
2023-03-31T02:45:40.682Z,46.62
2023-03-31T02:48:23.908Z,46.56
2023-03-31T02:51:02.537Z,46.70
2023-03-31T02:53:44.114Z,46.56
2023-03-31T02:56:43.370Z,46.63
2023-03-31T02:59:53.224Z,46.68
2023-03-31T03:02:35.077Z,46.86
2023-03-31T03:05:36.735Z,46.64
2023-03-31T03:08:55.829Z,46.94
2023-03-31T03:11:40.672Z,46.84
2023-03-31T03:14:36.942Z,46.70
2023-03-31T03:17:18.293Z,46.87
2023-03-31T03:19:59.462Z,46.79
2023-03-31T03:22:28.345Z,46.69
2023-03-31T03:24:56.812Z,46.74
2023-03-31T03:27:25.629Z,46.81
2023-03-31T03:29:54.157Z,46.75
2023-03-31T03:32:23.036Z,46.87
2023-03-31T03:34:51.504Z,46.84
2023-03-31T03:37:20.573Z,46.73
2023-03-31T03:39:49.055Z,46.89
2023-03-31T03:42:17.764Z,47.10
2023-03-31T03:44:46.224Z,46.95
2023-03-31T03:47:15.291Z,46.96
2023-03-31T03:49:43.846Z,46.89
2023-03-31T03:52:12.671Z,46.82
2023-03-31T03:54:41.183Z,46.93
2023-03-31T03:57:10.074Z,46.89
2023-03-31T03:59:38.741Z,47.05
2023-03-31T04:02:07.727Z,46.95
2023-03-31T04:04:36.404Z,46.97
2023-03-31T04:07:05.624Z,46.79
2023-03-31T04:09:35.537Z,46.96
2023-03-31T04:12:04.796Z,46.95
2023-03-31T04:14:33.272Z,46.89
2023-03-31T04:17:03.079Z,46.95
2023-03-31T04:19:31.444Z,46.87
2023-03-31T04:22:03.290Z,46.85
2023-03-31T04:24:33.400Z,46.93
2023-03-31T04:27:03.385Z,46.78
2023-03-31T04:29:34.031Z,46.91
2023-03-31T04:32:03.085Z,46.80
2023-03-31T04:34:37.515Z,47.04
2023-03-31T04:37:06.307Z,46.92
2023-03-31T04:39:34.702Z,46.84
2023-03-31T04:42:05.483Z,46.77
2023-03-31T04:44:33.787Z,46.75
2023-03-31T04:47:03.483Z,46.79
2023-03-31T04:49:33.849Z,46.69
2023-03-31T04:52:02.565Z,46.85
2023-03-31T04:54:30.955Z,46.91
2023-03-31T04:56:59.735Z,46.72
2023-03-31T04:59:28.106Z,46.85
2023-03-31T05:01:57.097Z,46.75
2023-03-31T05:04:25.747Z,46.88
2023-03-31T05:06:54.484Z,46.90
2023-03-31T05:09:22.960Z,46.76
2023-03-31T05:11:51.861Z,46.93
2023-03-31T05:14:21.139Z,47.00
2023-03-31T05:16:49.909Z,46.56
2023-03-31T05:19:18.499Z,46.81
2023-03-31T05:21:47.345Z,46.72
2023-03-31T05:24:15.797Z,46.88
2023-03-31T05:26:52.875Z,46.81
2023-03-31T05:29:21.752Z,47.06
2023-03-31T05:31:51.132Z,46.94
2023-03-31T05:34:19.855Z,46.70
2023-03-31T05:36:50.664Z,46.86
2023-03-31T05:39:18.946Z,47.00
2023-03-31T05:41:47.642Z,47.07
2023-03-31T05:44:16.214Z,46.86
2023-03-31T05:46:45.012Z,46.82
2023-03-31T05:49:16.223Z,46.94
2023-03-31T05:51:44.923Z,46.91
2023-03-31T05:54:13.675Z,47.04
2023-03-31T05:56:42.354Z,46.89
2023-03-31T05:59:10.949Z,46.96
2023-03-31T06:01:39.863Z,46.74
2023-03-31T06:04:08.228Z,46.82
2023-03-31T06:06:38.480Z,47.15
2023-03-31T06:09:06.987Z,47.14
2023-03-31T06:11:36.194Z,47.24
2023-03-31T06:14:05.018Z,47.19
2023-03-31T06:16:34.076Z,47.12
2023-03-31T06:19:02.452Z,47.50
2023-03-31T06:21:31.292Z,47.51
2023-03-31T06:24:00.639Z,47.16
2023-03-31T06:26:29.495Z,47.51
2023-03-31T06:28:57.938Z,47.47
2023-03-31T06:31:26.798Z,47.49
2023-03-31T06:33:55.237Z,47.78
2023-03-31T06:36:24.049Z,47.68
2023-03-31T06:38:52.563Z,47.39
2023-03-31T06:41:22.712Z,47.56
2023-03-31T06:43:51.289Z,47.56
2023-03-31T06:46:20.096Z,47.61
2023-03-31T06:48:48.673Z,47.89
2023-03-31T06:51:17.461Z,48.08
2023-03-31T06:53:45.844Z,48.19
2023-03-31T06:56:14.700Z,48.13
2023-03-31T06:58:43.171Z,48.50
2023-03-31T07:01:12.211Z,48.30
2023-03-31T07:03:40.971Z,48.49
2023-03-31T07:06:10.001Z,48.64
2023-03-31T07:08:38.509Z,48.76
2023-03-31T07:11:07.439Z,48.73
2023-03-31T07:13:36.010Z,48.15
2023-03-31T07:16:05.609Z,48.12
2023-03-31T07:18:35.468Z,48.00
2023-03-31T07:21:09.063Z,48.12
2023-03-31T07:23:38.567Z,48.03
2023-03-31T07:26:08.057Z,48.09
2023-03-31T07:28:36.508Z,48.20
2023-03-31T07:31:14.489Z,48.03
2023-03-31T07:33:42.856Z,47.99
2023-03-31T07:36:13.287Z,48.19
2023-03-31T07:38:43.703Z,48.22
2023-03-31T07:41:18.677Z,48.41
2023-03-31T07:43:47.298Z,48.22
2023-03-31T07:46:27.326Z,48.36
2023-03-31T07:48:57.013Z,48.31
2023-03-31T07:51:26.766Z,48.02
2023-03-31T07:53:55.098Z,47.98
2023-03-31T07:56:25.043Z,47.81
2023-03-31T07:58:56.872Z,47.84
2023-03-31T08:01:29.030Z,47.92
2023-03-31T08:03:57.749Z,48.03
2023-03-31T08:06:27.124Z,48.15
2023-03-31T08:08:55.683Z,48.16
2023-03-31T08:11:24.578Z,47.78
2023-03-31T08:13:53.115Z,48.13
2023-03-31T08:16:21.891Z,48.14
2023-03-31T08:18:50.754Z,48.02
2023-03-31T08:21:20.580Z,47.56
2023-03-31T08:23:50.459Z,47.76
2023-03-31T08:26:19.355Z,48.11
2023-03-31T08:28:49.506Z,47.74
2023-03-31T08:31:20.612Z,47.78
2023-03-31T08:33:49.054Z,48.05
2023-03-31T08:36:17.955Z,48.05
2023-03-31T08:38:47.535Z,48.04
2023-03-31T08:41:37.013Z,48.05
2023-03-31T08:44:16.462Z,47.65
2023-03-31T08:46:45.515Z,47.85
2023-03-31T08:49:17.036Z,47.73
2023-03-31T08:51:58.521Z,47.76
2023-03-31T08:54:38.944Z,47.88
2023-03-31T08:57:27.497Z,47.74
2023-03-31T08:59:59.087Z,47.94
2023-03-31T09:02:49.614Z,47.81
2023-03-31T09:05:56.820Z,48.09
2023-03-31T09:08:38.888Z,47.72
2023-03-31T09:11:35.796Z,47.87
2023-03-31T09:14:38.250Z,47.71
2023-03-31T09:17:25.666Z,48.05
2023-03-31T09:20:08.683Z,47.89
2023-03-31T09:22:53.423Z,48.00
2023-03-31T09:25:27.259Z,48.04
2023-03-31T09:27:58.143Z,48.30
2023-03-31T09:30:32.403Z,47.75
2023-03-31T09:33:22.812Z,47.85
2023-03-31T09:35:52.307Z,47.97
2023-03-31T09:38:21.072Z,48.08
2023-03-31T09:40:49.827Z,48.00
2023-03-31T09:43:31.752Z,48.01
2023-03-31T09:46:08.750Z,48.25
2023-03-31T09:48:38.754Z,47.88
2023-03-31T09:51:10.725Z,47.76
2023-03-31T09:53:57.103Z,47.86
2023-03-31T09:56:55.717Z,47.86
2023-03-31T09:59:32.487Z,47.93
2023-03-31T10:02:05.671Z,48.40
2023-03-31T10:04:35.132Z,48.17
2023-03-31T10:07:05.471Z,48.11
2023-03-31T10:09:34.507Z,48.14
2023-03-31T10:12:16.414Z,48.45
2023-03-31T10:14:47.571Z,48.04
2023-03-31T10:17:19.690Z,48.48
2023-03-31T10:19:58.292Z,48.29
2023-03-31T10:22:31.398Z,48.24
2023-03-31T10:25:19.315Z,48.23
2023-03-31T10:27:52.645Z,48.09
2023-03-31T10:30:29.486Z,47.88
2023-03-31T10:33:01.550Z,47.97
2023-03-31T10:35:35.982Z,48.08
2023-03-31T10:38:14.737Z,47.97
2023-03-31T10:40:52.431Z,48.22
2023-03-31T10:43:37.837Z,48.43
2023-03-31T10:46:06.289Z,48.53
2023-03-31T10:48:41.661Z,48.48
2023-03-31T10:51:17.330Z,48.44
2023-03-31T10:53:50.619Z,48.05
2023-03-31T10:56:49.351Z,47.97
2023-03-31T10:59:34.296Z,47.83
2023-03-31T11:02:33.355Z,48.27
2023-03-31T11:05:25.596Z,48.29
2023-03-31T11:08:18.650Z,48.43
2023-03-31T11:11:31.567Z,48.85
2023-03-31T11:14:32.489Z,50.00
2023-03-31T11:17:04.593Z,49.94
2023-03-31T11:19:43.231Z,50.04
2023-03-31T11:22:38.156Z,51.19
2023-03-31T11:25:39.566Z,52.06
2023-03-31T11:28:27.538Z,51.64
2023-03-31T11:31:24.455Z,52.18
2023-03-31T11:34:29.389Z,51.79
2023-03-31T11:37:22.439Z,51.46
2023-03-31T11:40:09.642Z,51.97
2023-03-31T11:42:47.368Z,51.53
2023-03-31T11:45:50.566Z,51.82
2023-03-31T11:48:37.346Z,51.94
2023-03-31T11:51:12.178Z,52.21
2023-03-31T11:53:40.729Z,51.79
2023-03-31T11:56:11.044Z,51.84
2023-03-31T11:58:53.206Z,51.90
2023-03-31T12:01:30.350Z,51.60
2023-03-31T12:04:33.774Z,51.97
2023-03-31T12:07:22.993Z,51.87
2023-03-31T12:10:22.777Z,51.68
2023-03-31T12:13:29.680Z,50.97
2023-03-31T12:16:20.632Z,51.44
2023-03-31T12:19:23.406Z,51.36
2023-03-31T12:22:17.319Z,51.29
2023-03-31T12:24:47.208Z,51.22
2023-03-31T12:27:42.170Z,50.86
2023-03-31T12:30:42.490Z,50.60
2023-03-31T12:33:23.664Z,50.59
2023-03-31T12:36:32.766Z,50.71
2023-03-31T12:39:23.909Z,49.35
2023-03-31T12:42:49.043Z,48.98
2023-03-31T12:45:32.003Z,49.85
2023-03-31T12:48:07.091Z,49.98
2023-03-31T12:51:49.945Z,49.75
2023-03-31T12:54:52.341Z,49.51
2023-03-31T12:57:25.005Z,49.44
2023-03-31T13:00:12.731Z,49.25
2023-03-31T13:02:41.630Z,49.35
2023-03-31T13:05:47.945Z,49.27
2023-03-31T13:09:08.808Z,48.21
2023-03-31T13:11:47.995Z,48.39
2023-03-31T13:14:22.181Z,48.03
2023-03-31T13:16:54.304Z,48.03
2023-03-31T13:19:33.665Z,48.45
2023-03-31T13:22:06.307Z,48.33
2023-03-31T13:24:34.893Z,47.74
2023-03-31T13:27:33.774Z,47.97
2023-03-31T13:30:02.232Z,48.62
2023-03-31T13:32:31.237Z,48.32
2023-03-31T13:35:21.740Z,47.58
2023-03-31T13:38:05.527Z,47.61
2023-03-31T13:41:03.065Z,47.60
2023-03-31T13:44:20.420Z,47.62
2023-03-31T13:47:41.646Z,48.72
2023-03-31T13:50:27.760Z,48.02
2023-03-31T13:53:31.681Z,48.14
2023-03-31T13:56:39.037Z,47.87
2023-03-31T13:59:42.039Z,48.14
2023-03-31T14:02:40.909Z,48.27
2023-03-31T14:05:36.413Z,48.39
2023-03-31T14:08:37.214Z,48.34
2023-03-31T14:11:25.102Z,48.30
2023-03-31T14:14:07.943Z,47.93
2023-03-31T14:17:01.644Z,48.15
2023-03-31T14:19:45.138Z,48.15
2023-03-31T14:22:59.390Z,48.08
2023-03-31T14:25:55.726Z,48.03
2023-03-31T14:28:52.759Z,48.01
2023-03-31T14:31:36.697Z,48.53
2023-03-31T14:34:26.442Z,48.44
2023-03-31T14:37:24.964Z,48.45
2023-03-31T14:39:56.717Z,48.38
2023-03-31T14:42:50.094Z,48.33
2023-03-31T14:45:25.400Z,48.37
2023-03-31T14:47:56.842Z,47.92
2023-03-31T14:50:35.848Z,48.06
2023-03-31T14:53:05.130Z,48.21
2023-03-31T14:55:49.763Z,48.27
2023-03-31T14:58:50.782Z,48.41
2023-03-31T15:01:25.010Z,48.36
2023-03-31T15:03:54.098Z,48.12
2023-03-31T15:06:25.974Z,48.34
2023-03-31T15:08:57.570Z,48.29
2023-03-31T15:11:26.054Z,48.20
2023-03-31T15:14:04.483Z,48.32
2023-03-31T15:16:42.692Z,48.04
2023-03-31T15:19:26.605Z,48.10
2023-03-31T15:22:06.430Z,48.13
2023-03-31T15:24:35.174Z,48.21
2023-03-31T15:27:23.440Z,48.18
2023-03-31T15:29:59.729Z,48.10
2023-03-31T15:32:34.995Z,48.22
2023-03-31T15:35:18.863Z,48.28
2023-03-31T15:37:52.441Z,47.94
2023-03-31T15:40:41.192Z,48.27
2023-03-31T15:45:52.291Z,48.31
2023-03-31T15:48:56.187Z,48.14
2023-03-31T15:51:39.594Z,47.89
2023-03-31T15:54:37.138Z,48.53
2023-03-31T15:57:07.525Z,48.18
2023-03-31T16:02:47.238Z,48.04
2023-03-31T16:05:53.559Z,48.35
2023-03-31T16:08:29.118Z,48.13
2023-03-31T16:11:05.135Z,48.20
2023-03-31T16:13:33.806Z,48.12
2023-03-31T16:16:02.313Z,48.19
2023-03-31T16:18:37.436Z,48.12
2023-03-31T16:21:06.423Z,48.13
2023-03-31T16:23:47.258Z,48.11
2023-03-31T16:26:22.726Z,47.70
2023-03-31T16:28:53.052Z,47.85
2023-03-31T16:31:36.947Z,47.99
2023-03-31T16:34:07.895Z,47.94
2023-03-31T16:36:36.485Z,47.93
2023-03-31T16:39:05.764Z,47.84
2023-03-31T16:41:34.931Z,48.03
2023-03-31T16:44:03.692Z,48.06
2023-03-31T16:46:32.018Z,47.84
2023-03-31T16:49:00.817Z,47.95
2023-03-31T16:51:29.295Z,47.73
2023-03-31T16:53:59.360Z,47.76
2023-03-31T16:56:28.319Z,48.06
2023-03-31T16:58:57.523Z,48.03
2023-03-31T17:01:25.875Z,48.41
2023-03-31T17:03:55.234Z,47.77
2023-03-31T17:06:23.739Z,47.56
2023-03-31T17:08:52.432Z,47.57
2023-03-31T17:11:20.729Z,47.79
2023-03-31T17:13:50.097Z,47.73
2023-03-31T17:16:24.356Z,48.08
2023-03-31T17:19:01.813Z,47.83
2023-03-31T17:21:30.239Z,47.70
2023-03-31T17:24:01.568Z,48.21
2023-03-31T17:26:31.044Z,48.30
2023-03-31T17:29:00.795Z,48.28
2023-03-31T17:31:31.078Z,48.17
2023-03-31T17:33:59.972Z,47.88
2023-03-31T17:36:28.493Z,47.84
2023-03-31T17:38:57.162Z,48.17
2023-03-31T17:41:25.736Z,47.82
2023-03-31T17:43:54.466Z,47.83
2023-03-31T17:46:23.142Z,48.08
2023-03-31T17:48:53.926Z,48.08
2023-03-31T17:51:23.318Z,48.10
2023-03-31T17:53:52.254Z,48.20
2023-03-31T17:56:20.863Z,48.17
2023-03-31T17:58:49.608Z,48.25
2023-03-31T18:01:19.320Z,48.03
2023-03-31T18:03:48.214Z,47.96
2023-03-31T18:06:18.198Z,48.14
2023-03-31T18:08:47.505Z,48.12
2023-03-31T18:11:15.897Z,48.25
2023-03-31T18:13:44.909Z,48.06
2023-03-31T18:16:13.581Z,48.10
2023-03-31T18:18:42.750Z,48.00
2023-03-31T18:21:13.314Z,48.58
2023-03-31T18:23:42.227Z,48.70
2023-03-31T18:26:12.020Z,48.93
2023-03-31T18:28:43.883Z,48.75
2023-03-31T18:31:12.715Z,48.73
2023-03-31T18:33:42.051Z,48.91
2023-03-31T18:36:19.224Z,48.99
2023-03-31T18:38:51.618Z,48.86
2023-03-31T18:41:20.833Z,49.34
2023-03-31T18:43:52.977Z,49.28
2023-03-31T18:46:21.942Z,49.20
2023-03-31T18:48:51.602Z,49.18
2023-03-31T18:51:20.415Z,49.17
2023-03-31T18:53:52.184Z,49.33
2023-03-31T18:56:23.455Z,49.19
2023-03-31T18:58:52.953Z,49.34
2023-03-31T19:01:21.438Z,49.32
2023-03-31T19:03:50.340Z,49.03
2023-03-31T19:06:21.204Z,49.33
2023-03-31T19:08:50.038Z,49.21
2023-03-31T19:11:19.028Z,49.03
2023-03-31T19:13:47.993Z,49.02
2023-03-31T19:16:17.798Z,49.20
2023-03-31T19:18:47.237Z,49.13
2023-03-31T19:21:15.814Z,49.29
2023-03-31T19:23:44.747Z,49.01
2023-03-31T19:26:18.525Z,48.89
2023-03-31T19:28:48.526Z,49.07
2023-03-31T19:31:17.107Z,48.77
2023-03-31T19:33:46.529Z,49.13
2023-03-31T19:36:15.135Z,49.06
2023-03-31T19:38:44.128Z,49.14
2023-03-31T19:41:12.618Z,49.25
2023-03-31T19:43:41.315Z,49.15
2023-03-31T19:46:09.850Z,48.93
2023-03-31T19:48:38.770Z,48.99
2023-03-31T19:51:08.676Z,48.87
2023-03-31T19:53:38.583Z,48.77
2023-03-31T19:56:16.141Z,48.90
2023-03-31T19:58:45.157Z,48.86
2023-03-31T20:01:27.593Z,48.85
2023-03-31T20:03:57.046Z,48.93
2023-03-31T20:06:29.001Z,48.87
2023-03-31T20:09:00.176Z,48.71
2023-03-31T20:11:32.314Z,48.85
2023-03-31T20:14:01.446Z,48.77
2023-03-31T20:16:31.224Z,48.83
2023-03-31T20:19:05.293Z,48.72
2023-03-31T20:21:36.180Z,48.74
2023-03-31T20:24:05.870Z,48.73
2023-03-31T20:26:34.912Z,48.67
2023-03-31T20:29:04.194Z,48.34
2023-03-31T20:31:36.861Z,48.53
2023-03-31T20:34:08.965Z,48.67
2023-03-31T20:36:37.425Z,48.45
2023-03-31T20:39:06.686Z,48.67
2023-03-31T20:41:37.432Z,48.72
2023-03-31T20:44:07.880Z,48.74
2023-03-31T20:46:37.439Z,48.62
2023-03-31T20:49:07.696Z,48.62
2023-03-31T20:51:39.878Z,48.61
2023-03-31T20:54:08.868Z,48.66
2023-03-31T20:56:41.721Z,48.51
2023-03-31T20:59:15.415Z,48.62
2023-03-31T21:01:45.427Z,48.58
2023-03-31T21:04:14.379Z,48.66
2023-03-31T21:06:45.661Z,48.38
2023-03-31T21:09:15.400Z,48.55
2023-03-31T21:11:44.080Z,48.66
2023-03-31T21:14:16.607Z,48.53
2023-03-31T21:16:45.262Z,48.42
2023-03-31T21:19:14.117Z,48.53
2023-03-31T21:21:43.562Z,48.54
2023-03-31T21:24:13.368Z,48.44
2023-03-31T21:26:42.007Z,48.55
2023-03-31T21:29:10.921Z,48.59
2023-03-31T21:31:39.506Z,48.39
2023-03-31T21:34:09.302Z,48.47
2023-03-31T21:36:37.753Z,48.38
2023-03-31T21:39:06.615Z,48.52
2023-03-31T21:41:35.174Z,48.43
2023-03-31T21:44:04.479Z,48.59
2023-03-31T21:46:33.828Z,48.30
2023-03-31T21:49:03.211Z,48.47
2023-03-31T21:51:31.879Z,48.32
2023-03-31T21:54:00.648Z,48.42
2023-03-31T21:56:31.919Z,48.42
2023-03-31T21:59:02.641Z,48.02
2023-03-31T22:01:31.720Z,48.18
2023-03-31T22:04:00.872Z,48.34
2023-03-31T22:06:29.578Z,48.27
2023-03-31T22:08:58.641Z,48.18
2023-03-31T22:11:28.882Z,48.21
2023-03-31T22:13:57.983Z,48.26
2023-03-31T22:16:26.985Z,48.01
2023-03-31T22:18:56.159Z,48.34
2023-03-31T22:21:41.991Z,48.00
2023-03-31T22:24:12.555Z,48.26
2023-03-31T22:26:41.225Z,48.22
2023-03-31T22:29:15.131Z,48.16
2023-03-31T22:31:43.629Z,48.22
2023-03-31T22:34:12.527Z,48.17
2023-03-31T22:36:41.036Z,48.29
2023-03-31T22:39:10.570Z,48.35
2023-03-31T22:41:39.052Z,47.90
2023-03-31T22:44:08.509Z,48.06
2023-03-31T22:46:38.058Z,47.97
2023-03-31T22:49:06.843Z,48.13
2023-03-31T22:51:35.348Z,48.07
2023-03-31T22:54:04.355Z,47.86
2023-03-31T22:56:32.905Z,48.05
2023-03-31T22:59:02.484Z,48.08
2023-03-31T23:01:31.134Z,48.00
2023-03-31T23:04:01.451Z,47.93
2023-03-31T23:06:31.483Z,47.88
2023-03-31T23:09:01.580Z,47.98
2023-03-31T23:11:30.684Z,47.90
2023-03-31T23:13:59.442Z,47.81
2023-03-31T23:16:27.906Z,47.83
2023-03-31T23:18:56.822Z,48.03
2023-03-31T23:21:27.452Z,47.86
2023-03-31T23:23:58.880Z,47.85
2023-03-31T23:26:28.097Z,47.78
2023-03-31T23:28:57.549Z,48.02
2023-03-31T23:31:31.421Z,47.65
2023-03-31T23:34:00.726Z,47.89
2023-03-31T23:36:29.397Z,47.76
2023-03-31T23:38:58.223Z,47.74
2023-03-31T23:41:26.863Z,47.59
2023-03-31T23:43:57.930Z,47.71
2023-03-31T23:46:26.657Z,47.75
2023-03-31T23:48:56.024Z,47.73
2023-03-31T23:51:24.600Z,47.69
2023-03-31T23:53:53.427Z,47.53
2023-03-31T23:56:22.521Z,47.58
2023-03-31T23:58:51.464Z,47.81
